sensor_id;sensor_type;location;lat;lon;timestamp;P1;durP1;ratioP1;P2;durP2;ratioP2
70667;SDS011;58242;51.250;-1.118;2023-10-31T00:00:15;2.53;;;2.42;;
70667;SDS011;58242;51.250;-1.118;2023-10-31T00:02:40;2.50;;;2.30;;
70667;SDS011;58242;51.250;-1.118;2023-10-31T00:05:06;2.30;;;2.20;;
70667;SDS011;58242;51.250;-1.118;2023-10-31T00:07:31;2.30;;;2.30;;
70667;SDS011;58242;51.250;-1.118;2023-10-31T00:09:56;2.67;;;2.55;;
70667;SDS011;58242;51.250;-1.118;2023-10-31T00:12:22;2.13;;;2.13;;
70667;SDS011;58242;51.250;-1.118;2023-10-31T00:14:47;2.38;;;2.28;;
70667;SDS011;58242;51.250;-1.118;2023-10-31T00:17:12;2.30;;;2.20;;
70667;SDS011;58242;51.250;-1.118;2023-10-31T00:19:37;2.50;;;2.40;;
70667;SDS011;58242;51.250;-1.118;2023-10-31T00:22:03;2.60;;;2.50;;
70667;SDS011;58242;51.250;-1.118;2023-10-31T00:24:28;2.38;;;2.30;;
70667;SDS011;58242;51.250;-1.118;2023-10-31T00:26:54;2.60;;;2.50;;
70667;SDS011;58242;51.250;-1.118;2023-10-31T00:29:19;2.42;;;2.22;;
70667;SDS011;58242;51.250;-1.118;2023-10-31T00:31:44;2.40;;;2.30;;
70667;SDS011;58242;51.250;-1.118;2023-10-31T00:34:10;2.28;;;2.17;;
70667;SDS011;58242;51.250;-1.118;2023-10-31T00:36:35;2.60;;;2.50;;
70667;SDS011;58242;51.250;-1.118;2023-10-31T00:39:00;2.80;;;2.70;;
70667;SDS011;58242;51.250;-1.118;2023-10-31T00:41:26;2.72;;;2.50;;
70667;SDS011;58242;51.250;-1.118;2023-10-31T00:43:51;2.60;;;2.50;;
70667;SDS011;58242;51.250;-1.118;2023-10-31T00:46:16;2.55;;;2.45;;
70667;SDS011;58242;51.250;-1.118;2023-10-31T00:48:42;2.50;;;2.40;;
70667;SDS011;58242;51.250;-1.118;2023-10-31T00:51:07;2.67;;;2.58;;
70667;SDS011;58242;51.250;-1.118;2023-10-31T00:53:32;2.65;;;2.50;;
70667;SDS011;58242;51.250;-1.118;2023-10-31T00:55:58;2.45;;;2.25;;
70667;SDS011;58242;51.250;-1.118;2023-10-31T00:58:23;2.67;;;2.47;;
70667;SDS011;58242;51.250;-1.118;2023-10-31T01:00:48;2.60;;;2.50;;
70667;SDS011;58242;51.250;-1.118;2023-10-31T01:03:14;2.55;;;2.45;;
70667;SDS011;58242;51.250;-1.118;2023-10-31T01:05:39;2.55;;;2.45;;
70667;SDS011;58242;51.250;-1.118;2023-10-31T01:08:04;2.70;;;2.60;;
70667;SDS011;58242;51.250;-1.118;2023-10-31T01:10:30;2.67;;;2.58;;
70667;SDS011;58242;51.250;-1.118;2023-10-31T01:12:55;2.65;;;2.55;;
70667;SDS011;58242;51.250;-1.118;2023-10-31T01:15:21;3.05;;;2.80;;
70667;SDS011;58242;51.250;-1.118;2023-10-31T01:17:46;2.70;;;2.60;;
70667;SDS011;58242;51.250;-1.118;2023-10-31T01:20:11;2.60;;;2.47;;
70667;SDS011;58242;51.250;-1.118;2023-10-31T01:22:37;2.65;;;2.55;;
70667;SDS011;58242;51.250;-1.118;2023-10-31T01:25:02;2.70;;;2.60;;
70667;SDS011;58242;51.250;-1.118;2023-10-31T01:27:28;2.80;;;2.70;;
70667;SDS011;58242;51.250;-1.118;2023-10-31T01:29:53;2.58;;;2.47;;
70667;SDS011;58242;51.250;-1.118;2023-10-31T01:32:18;2.65;;;2.55;;
70667;SDS011;58242;51.250;-1.118;2023-10-31T01:34:44;2.50;;;2.40;;
70667;SDS011;58242;51.250;-1.118;2023-10-31T01:37:09;2.67;;;2.50;;
70667;SDS011;58242;51.250;-1.118;2023-10-31T01:39:37;2.80;;;2.70;;
70667;SDS011;58242;51.250;-1.118;2023-10-31T01:42:03;2.60;;;2.50;;
70667;SDS011;58242;51.250;-1.118;2023-10-31T01:44:28;3.20;;;2.65;;
70667;SDS011;58242;51.250;-1.118;2023-10-31T01:46:53;2.63;;;2.53;;
70667;SDS011;58242;51.250;-1.118;2023-10-31T01:49:20;3.10;;;2.90;;
70667;SDS011;58242;51.250;-1.118;2023-10-31T01:51:45;3.03;;;2.90;;
70667;SDS011;58242;51.250;-1.118;2023-10-31T01:54:10;2.55;;;2.45;;
70667;SDS011;58242;51.250;-1.118;2023-10-31T01:56:37;2.65;;;2.55;;
70667;SDS011;58242;51.250;-1.118;2023-10-31T01:59:04;2.50;;;2.50;;
70667;SDS011;58242;51.250;-1.118;2023-10-31T02:01:30;2.60;;;2.50;;
70667;SDS011;58242;51.250;-1.118;2023-10-31T02:03:57;2.40;;;2.40;;
70667;SDS011;58242;51.250;-1.118;2023-10-31T02:06:23;3.10;;;3.00;;
70667;SDS011;58242;51.250;-1.118;2023-10-31T02:08:49;3.60;;;3.30;;
70667;SDS011;58242;51.250;-1.118;2023-10-31T02:11:14;2.83;;;2.72;;
70667;SDS011;58242;51.250;-1.118;2023-10-31T02:13:39;5.10;;;3.40;;
70667;SDS011;58242;51.250;-1.118;2023-10-31T02:16:05;3.47;;;3.33;;
70667;SDS011;58242;51.250;-1.118;2023-10-31T02:18:30;3.33;;;3.13;;
70667;SDS011;58242;51.250;-1.118;2023-10-31T02:20:56;3.40;;;3.30;;
70667;SDS011;58242;51.250;-1.118;2023-10-31T02:23:21;3.47;;;3.28;;
70667;SDS011;58242;51.250;-1.118;2023-10-31T02:25:47;3.50;;;3.20;;
70667;SDS011;58242;51.250;-1.118;2023-10-31T02:28:12;3.20;;;3.05;;
70667;SDS011;58242;51.250;-1.118;2023-10-31T02:30:37;3.28;;;3.17;;
70667;SDS011;58242;51.250;-1.118;2023-10-31T02:33:03;3.30;;;3.17;;
70667;SDS011;58242;51.250;-1.118;2023-10-31T02:35:28;3.83;;;3.63;;
70667;SDS011;58242;51.250;-1.118;2023-10-31T02:37:53;3.25;;;3.05;;
70667;SDS011;58242;51.250;-1.118;2023-10-31T02:40:19;3.33;;;3.22;;
70667;SDS011;58242;51.250;-1.118;2023-10-31T02:42:44;3.25;;;3.05;;
70667;SDS011;58242;51.250;-1.118;2023-10-31T02:45:10;3.50;;;3.30;;
70667;SDS011;58242;51.250;-1.118;2023-10-31T02:47:35;3.35;;;3.15;;
70667;SDS011;58242;51.250;-1.118;2023-10-31T02:50:01;3.55;;;3.35;;
70667;SDS011;58242;51.250;-1.118;2023-10-31T02:52:26;3.00;;;2.90;;
70667;SDS011;58242;51.250;-1.118;2023-10-31T02:54:51;3.15;;;3.05;;
70667;SDS011;58242;51.250;-1.118;2023-10-31T02:57:17;3.40;;;3.30;;
70667;SDS011;58242;51.250;-1.118;2023-10-31T02:59:42;3.17;;;3.00;;
70667;SDS011;58242;51.250;-1.118;2023-10-31T03:02:07;3.10;;;3.00;;
70667;SDS011;58242;51.250;-1.118;2023-10-31T03:04:33;3.00;;;2.90;;
70667;SDS011;58242;51.250;-1.118;2023-10-31T03:06:58;3.15;;;3.05;;
70667;SDS011;58242;51.250;-1.118;2023-10-31T03:09:23;3.17;;;3.08;;
70667;SDS011;58242;51.250;-1.118;2023-10-31T03:11:49;3.10;;;3.00;;
70667;SDS011;58242;51.250;-1.118;2023-10-31T03:14:14;3.13;;;3.03;;
70667;SDS011;58242;51.250;-1.118;2023-10-31T03:16:39;3.30;;;3.20;;
70667;SDS011;58242;51.250;-1.118;2023-10-31T03:19:05;3.30;;;3.10;;
70667;SDS011;58242;51.250;-1.118;2023-10-31T03:21:30;3.22;;;3.10;;
70667;SDS011;58242;51.250;-1.118;2023-10-31T03:23:55;3.45;;;3.35;;
70667;SDS011;58242;51.250;-1.118;2023-10-31T03:26:22;3.50;;;3.40;;
70667;SDS011;58242;51.250;-1.118;2023-10-31T03:28:48;3.25;;;3.15;;
70667;SDS011;58242;51.250;-1.118;2023-10-31T03:31:14;3.20;;;3.10;;
70667;SDS011;58242;51.250;-1.118;2023-10-31T03:33:39;2.80;;;2.70;;
70667;SDS011;58242;51.250;-1.118;2023-10-31T03:36:05;3.10;;;3.00;;
70667;SDS011;58242;51.250;-1.118;2023-10-31T03:38:31;3.22;;;3.03;;
70667;SDS011;58242;51.250;-1.118;2023-10-31T03:40:57;3.17;;;3.08;;
70667;SDS011;58242;51.250;-1.118;2023-10-31T03:43:22;3.10;;;3.00;;
70667;SDS011;58242;51.250;-1.118;2023-10-31T03:45:47;2.90;;;2.80;;
70667;SDS011;58242;51.250;-1.118;2023-10-31T03:48:13;2.90;;;2.80;;
70667;SDS011;58242;51.250;-1.118;2023-10-31T03:50:38;2.80;;;2.70;;
70667;SDS011;58242;51.250;-1.118;2023-10-31T03:53:04;3.08;;;2.97;;
70667;SDS011;58242;51.250;-1.118;2023-10-31T03:55:29;3.25;;;2.95;;
70667;SDS011;58242;51.250;-1.118;2023-10-31T03:57:58;2.80;;;2.70;;
70667;SDS011;58242;51.250;-1.118;2023-10-31T04:00:23;2.90;;;2.80;;
70667;SDS011;58242;51.250;-1.118;2023-10-31T04:02:48;3.05;;;2.95;;
70667;SDS011;58242;51.250;-1.118;2023-10-31T04:05:14;3.00;;;2.90;;
70667;SDS011;58242;51.250;-1.118;2023-10-31T04:07:39;3.10;;;3.00;;
70667;SDS011;58242;51.250;-1.118;2023-10-31T04:10:05;3.47;;;3.28;;
70667;SDS011;58242;51.250;-1.118;2023-10-31T04:12:31;3.00;;;2.90;;
70667;SDS011;58242;51.250;-1.118;2023-10-31T04:14:56;3.25;;;3.15;;
70667;SDS011;58242;51.250;-1.118;2023-10-31T04:17:22;3.00;;;2.90;;
70667;SDS011;58242;51.250;-1.118;2023-10-31T04:19:47;3.28;;;3.17;;
70667;SDS011;58242;51.250;-1.118;2023-10-31T04:22:13;2.90;;;2.80;;
70667;SDS011;58242;51.250;-1.118;2023-10-31T04:24:38;2.85;;;2.75;;
70667;SDS011;58242;51.250;-1.118;2023-10-31T04:27:03;3.15;;;3.05;;
70667;SDS011;58242;51.250;-1.118;2023-10-31T04:29:28;3.35;;;3.10;;
70667;SDS011;58242;51.250;-1.118;2023-10-31T04:31:54;2.97;;;2.88;;
70667;SDS011;58242;51.250;-1.118;2023-10-31T04:34:19;3.17;;;3.05;;
70667;SDS011;58242;51.250;-1.118;2023-10-31T04:36:44;2.90;;;2.80;;
70667;SDS011;58242;51.250;-1.118;2023-10-31T04:39:10;3.10;;;3.00;;
70667;SDS011;58242;51.250;-1.118;2023-10-31T04:41:35;2.95;;;2.85;;
70667;SDS011;58242;51.250;-1.118;2023-10-31T04:44:01;2.88;;;2.78;;
70667;SDS011;58242;51.250;-1.118;2023-10-31T04:46:26;2.50;;;2.50;;
70667;SDS011;58242;51.250;-1.118;2023-10-31T04:48:52;2.60;;;2.50;;
70667;SDS011;58242;51.250;-1.118;2023-10-31T04:51:18;2.70;;;2.60;;
70667;SDS011;58242;51.250;-1.118;2023-10-31T04:53:44;2.63;;;2.42;;
70667;SDS011;58242;51.250;-1.118;2023-10-31T04:56:12;2.90;;;2.80;;
70667;SDS011;58242;51.250;-1.118;2023-10-31T04:58:41;2.97;;;2.88;;
70667;SDS011;58242;51.250;-1.118;2023-10-31T05:01:13;2.90;;;2.80;;
70667;SDS011;58242;51.250;-1.118;2023-10-31T05:03:39;3.08;;;2.97;;
70667;SDS011;58242;51.250;-1.118;2023-10-31T05:06:05;3.38;;;3.17;;
70667;SDS011;58242;51.250;-1.118;2023-10-31T05:08:31;3.25;;;3.15;;
70667;SDS011;58242;51.250;-1.118;2023-10-31T05:10:57;3.00;;;2.90;;
70667;SDS011;58242;51.250;-1.118;2023-10-31T05:13:23;3.10;;;3.00;;
70667;SDS011;58242;51.250;-1.118;2023-10-31T05:15:49;3.78;;;3.45;;
70667;SDS011;58242;51.250;-1.118;2023-10-31T05:18:15;3.50;;;3.40;;
70667;SDS011;58242;51.250;-1.118;2023-10-31T05:20:40;3.20;;;3.10;;
70667;SDS011;58242;51.250;-1.118;2023-10-31T05:23:06;3.53;;;3.42;;
70667;SDS011;58242;51.250;-1.118;2023-10-31T05:25:32;3.67;;;3.38;;
70667;SDS011;58242;51.250;-1.118;2023-10-31T05:27:57;2.90;;;2.80;;
70667;SDS011;58242;51.250;-1.118;2023-10-31T05:30:22;3.10;;;3.00;;
70667;SDS011;58242;51.250;-1.118;2023-10-31T05:32:49;3.22;;;3.13;;
70667;SDS011;58242;51.250;-1.118;2023-10-31T05:35:14;3.50;;;3.30;;
70667;SDS011;58242;51.250;-1.118;2023-10-31T05:37:40;3.50;;;3.40;;
70667;SDS011;58242;51.250;-1.118;2023-10-31T05:40:05;3.80;;;3.60;;
70667;SDS011;58242;51.250;-1.118;2023-10-31T05:42:31;3.42;;;3.33;;
70667;SDS011;58242;51.250;-1.118;2023-10-31T05:44:56;3.38;;;3.28;;
70667;SDS011;58242;51.250;-1.118;2023-10-31T05:47:22;3.20;;;3.10;;
70667;SDS011;58242;51.250;-1.118;2023-10-31T05:49:47;3.42;;;3.22;;
70667;SDS011;58242;51.250;-1.118;2023-10-31T05:52:13;3.20;;;3.10;;
70667;SDS011;58242;51.250;-1.118;2023-10-31T05:54:38;3.50;;;3.40;;
70667;SDS011;58242;51.250;-1.118;2023-10-31T05:57:03;3.78;;;3.50;;
70667;SDS011;58242;51.250;-1.118;2023-10-31T05:59:29;3.60;;;3.50;;
70667;SDS011;58242;51.250;-1.118;2023-10-31T06:01:55;3.10;;;3.00;;
70667;SDS011;58242;51.250;-1.118;2023-10-31T06:04:20;3.35;;;3.17;;
70667;SDS011;58242;51.250;-1.118;2023-10-31T06:06:45;3.10;;;3.00;;
70667;SDS011;58242;51.250;-1.118;2023-10-31T06:09:11;3.20;;;3.10;;
70667;SDS011;58242;51.250;-1.118;2023-10-31T06:11:39;3.05;;;2.95;;
70667;SDS011;58242;51.250;-1.118;2023-10-31T06:14:06;3.45;;;3.35;;
70667;SDS011;58242;51.250;-1.118;2023-10-31T06:16:31;3.50;;;3.40;;
70667;SDS011;58242;51.250;-1.118;2023-10-31T06:18:56;3.50;;;3.40;;
70667;SDS011;58242;51.250;-1.118;2023-10-31T06:21:21;3.47;;;3.38;;
70667;SDS011;58242;51.250;-1.118;2023-10-31T06:23:47;3.30;;;3.15;;
70667;SDS011;58242;51.250;-1.118;2023-10-31T06:26:12;3.50;;;3.40;;
70667;SDS011;58242;51.250;-1.118;2023-10-31T06:28:37;3.58;;;3.47;;
70667;SDS011;58242;51.250;-1.118;2023-10-31T06:31:05;3.00;;;2.90;;
70667;SDS011;58242;51.250;-1.118;2023-10-31T06:33:30;3.30;;;3.20;;
70667;SDS011;58242;51.250;-1.118;2023-10-31T06:35:55;3.30;;;3.10;;
70667;SDS011;58242;51.250;-1.118;2023-10-31T06:38:21;3.78;;;3.67;;
70667;SDS011;58242;51.250;-1.118;2023-10-31T06:40:46;3.20;;;3.10;;
70667;SDS011;58242;51.250;-1.118;2023-10-31T06:43:11;3.30;;;3.20;;
70667;SDS011;58242;51.250;-1.118;2023-10-31T06:45:37;3.70;;;3.60;;
70667;SDS011;58242;51.250;-1.118;2023-10-31T06:48:02;3.80;;;3.70;;
70667;SDS011;58242;51.250;-1.118;2023-10-31T06:50:28;5.45;;;4.10;;
70667;SDS011;58242;51.250;-1.118;2023-10-31T06:52:53;3.35;;;3.25;;
70667;SDS011;58242;51.250;-1.118;2023-10-31T06:55:19;3.75;;;3.55;;
70667;SDS011;58242;51.250;-1.118;2023-10-31T06:57:44;3.90;;;3.70;;
70667;SDS011;58242;51.250;-1.118;2023-10-31T07:00:10;3.67;;;3.58;;
70667;SDS011;58242;51.250;-1.118;2023-10-31T07:02:36;3.70;;;3.60;;
70667;SDS011;58242;51.250;-1.118;2023-10-31T07:05:03;4.40;;;4.22;;
70667;SDS011;58242;51.250;-1.118;2023-10-31T07:07:29;4.00;;;3.90;;
70667;SDS011;58242;51.250;-1.118;2023-10-31T07:09:54;3.50;;;3.40;;
70667;SDS011;58242;51.250;-1.118;2023-10-31T07:12:20;3.45;;;3.33;;
70667;SDS011;58242;51.250;-1.118;2023-10-31T07:14:45;3.63;;;3.53;;
70667;SDS011;58242;51.250;-1.118;2023-10-31T07:17:10;3.40;;;3.30;;
70667;SDS011;58242;51.250;-1.118;2023-10-31T07:19:35;3.72;;;3.53;;
70667;SDS011;58242;51.250;-1.118;2023-10-31T07:22:01;3.10;;;3.00;;
70667;SDS011;58242;51.250;-1.118;2023-10-31T07:24:27;3.30;;;3.20;;
70667;SDS011;58242;51.250;-1.118;2023-10-31T07:26:53;3.20;;;3.10;;
70667;SDS011;58242;51.250;-1.118;2023-10-31T07:29:18;3.28;;;3.17;;
70667;SDS011;58242;51.250;-1.118;2023-10-31T07:31:44;3.20;;;3.10;;
70667;SDS011;58242;51.250;-1.118;2023-10-31T07:34:09;3.90;;;3.70;;
70667;SDS011;58242;51.250;-1.118;2023-10-31T07:36:36;3.30;;;3.20;;
70667;SDS011;58242;51.250;-1.118;2023-10-31T07:39:01;3.10;;;3.00;;
70667;SDS011;58242;51.250;-1.118;2023-10-31T07:41:28;4.03;;;3.92;;
70667;SDS011;58242;51.250;-1.118;2023-10-31T07:43:54;3.33;;;3.22;;
70667;SDS011;58242;51.250;-1.118;2023-10-31T07:46:19;3.10;;;3.00;;
70667;SDS011;58242;51.250;-1.118;2023-10-31T07:48:45;4.15;;;3.95;;
70667;SDS011;58242;51.250;-1.118;2023-10-31T07:51:10;3.13;;;3.03;;
70667;SDS011;58242;51.250;-1.118;2023-10-31T07:53:35;3.28;;;3.17;;
70667;SDS011;58242;51.250;-1.118;2023-10-31T07:56:00;3.20;;;3.10;;
70667;SDS011;58242;51.250;-1.118;2023-10-31T07:58:26;3.42;;;3.33;;
70667;SDS011;58242;51.250;-1.118;2023-10-31T08:00:51;3.17;;;3.08;;
70667;SDS011;58242;51.250;-1.118;2023-10-31T08:03:16;3.10;;;3.00;;
70667;SDS011;58242;51.250;-1.118;2023-10-31T08:05:42;3.35;;;3.25;;
70667;SDS011;58242;51.250;-1.118;2023-10-31T08:08:07;3.40;;;3.30;;
70667;SDS011;58242;51.250;-1.118;2023-10-31T08:10:33;2.90;;;2.80;;
70667;SDS011;58242;51.250;-1.118;2023-10-31T08:12:59;2.72;;;2.63;;
70667;SDS011;58242;51.250;-1.118;2023-10-31T08:15:25;2.80;;;2.60;;
70667;SDS011;58242;51.250;-1.118;2023-10-31T08:17:50;2.72;;;2.63;;
70667;SDS011;58242;51.250;-1.118;2023-10-31T08:20:15;2.22;;;2.13;;
70667;SDS011;58242;51.250;-1.118;2023-10-31T08:22:41;3.58;;;3.47;;
70667;SDS011;58242;51.250;-1.118;2023-10-31T08:25:07;3.67;;;3.47;;
70667;SDS011;58242;51.250;-1.118;2023-10-31T08:27:33;3.47;;;3.17;;
70667;SDS011;58242;51.250;-1.118;2023-10-31T08:29:59;3.13;;;2.90;;
70667;SDS011;58242;51.250;-1.118;2023-10-31T08:32:24;3.08;;;2.97;;
70667;SDS011;58242;51.250;-1.118;2023-10-31T08:34:49;3.65;;;3.45;;
70667;SDS011;58242;51.250;-1.118;2023-10-31T08:37:15;3.80;;;3.60;;
70667;SDS011;58242;51.250;-1.118;2023-10-31T08:39:40;3.78;;;3.58;;
70667;SDS011;58242;51.250;-1.118;2023-10-31T08:42:05;3.95;;;3.65;;
70667;SDS011;58242;51.250;-1.118;2023-10-31T08:44:31;3.90;;;3.60;;
70667;SDS011;58242;51.250;-1.118;2023-10-31T08:46:58;3.30;;;3.10;;
70667;SDS011;58242;51.250;-1.118;2023-10-31T08:49:23;2.80;;;2.70;;
70667;SDS011;58242;51.250;-1.118;2023-10-31T08:51:49;3.33;;;3.22;;
70667;SDS011;58242;51.250;-1.118;2023-10-31T08:54:14;3.17;;;3.03;;
70667;SDS011;58242;51.250;-1.118;2023-10-31T08:56:39;3.60;;;3.50;;
70667;SDS011;58242;51.250;-1.118;2023-10-31T08:59:05;2.45;;;2.35;;
70667;SDS011;58242;51.250;-1.118;2023-10-31T09:01:30;3.28;;;3.08;;
70667;SDS011;58242;51.250;-1.118;2023-10-31T09:03:55;2.65;;;2.53;;
70667;SDS011;58242;51.250;-1.118;2023-10-31T09:06:20;2.80;;;2.70;;
70667;SDS011;58242;51.250;-1.118;2023-10-31T09:08:46;2.90;;;2.80;;
70667;SDS011;58242;51.250;-1.118;2023-10-31T09:11:11;3.20;;;3.10;;
70667;SDS011;58242;51.250;-1.118;2023-10-31T09:13:37;2.70;;;2.60;;
70667;SDS011;58242;51.250;-1.118;2023-10-31T09:16:02;2.40;;;2.30;;
70667;SDS011;58242;51.250;-1.118;2023-10-31T09:18:28;2.80;;;2.60;;
70667;SDS011;58242;51.250;-1.118;2023-10-31T09:20:53;2.50;;;2.40;;
70667;SDS011;58242;51.250;-1.118;2023-10-31T09:23:18;2.72;;;2.63;;
70667;SDS011;58242;51.250;-1.118;2023-10-31T09:25:44;2.60;;;2.50;;
70667;SDS011;58242;51.250;-1.118;2023-10-31T09:28:10;2.13;;;2.00;;
70667;SDS011;58242;51.250;-1.118;2023-10-31T09:30:35;2.20;;;2.10;;
70667;SDS011;58242;51.250;-1.118;2023-10-31T09:33:01;2.40;;;2.30;;
70667;SDS011;58242;51.250;-1.118;2023-10-31T09:35:26;2.05;;;1.98;;
70667;SDS011;58242;51.250;-1.118;2023-10-31T09:37:52;3.33;;;2.60;;
70667;SDS011;58242;51.250;-1.118;2023-10-31T09:40:18;2.30;;;2.20;;
70667;SDS011;58242;51.250;-1.118;2023-10-31T09:42:46;3.45;;;3.25;;
70667;SDS011;58242;51.250;-1.118;2023-10-31T09:45:13;3.60;;;3.40;;
70667;SDS011;58242;51.250;-1.118;2023-10-31T09:47:39;3.70;;;3.40;;
70667;SDS011;58242;51.250;-1.118;2023-10-31T09:50:05;3.97;;;3.67;;
70667;SDS011;58242;51.250;-1.118;2023-10-31T09:52:32;3.88;;;3.38;;
70667;SDS011;58242;51.250;-1.118;2023-10-31T09:54:57;3.97;;;2.90;;
70667;SDS011;58242;51.250;-1.118;2023-10-31T09:57:24;3.22;;;2.92;;
70667;SDS011;58242;51.250;-1.118;2023-10-31T09:59:51;3.42;;;3.05;;
70667;SDS011;58242;51.250;-1.118;2023-10-31T10:02:16;2.90;;;2.80;;
70667;SDS011;58242;51.250;-1.118;2023-10-31T10:04:42;2.90;;;2.70;;
70667;SDS011;58242;51.250;-1.118;2023-10-31T10:07:07;2.90;;;2.80;;
70667;SDS011;58242;51.250;-1.118;2023-10-31T10:09:32;2.25;;;2.15;;
70667;SDS011;58242;51.250;-1.118;2023-10-31T10:11:58;3.08;;;2.88;;
70667;SDS011;58242;51.250;-1.118;2023-10-31T10:14:25;2.90;;;2.70;;
70667;SDS011;58242;51.250;-1.118;2023-10-31T10:16:56;2.70;;;2.50;;
70667;SDS011;58242;51.250;-1.118;2023-10-31T10:19:22;3.58;;;2.75;;
70667;SDS011;58242;51.250;-1.118;2023-10-31T10:21:49;3.17;;;2.97;;
70667;SDS011;58242;51.250;-1.118;2023-10-31T10:24:16;2.90;;;2.70;;
70667;SDS011;58242;51.250;-1.118;2023-10-31T10:26:42;3.67;;;3.05;;
70667;SDS011;58242;51.250;-1.118;2023-10-31T10:29:08;2.70;;;2.50;;
70667;SDS011;58242;51.250;-1.118;2023-10-31T10:31:33;3.03;;;2.78;;
70667;SDS011;58242;51.250;-1.118;2023-10-31T10:33:58;2.80;;;2.70;;
70667;SDS011;58242;51.250;-1.118;2023-10-31T10:36:26;6.72;;;2.67;;
70667;SDS011;58242;51.250;-1.118;2023-10-31T10:38:52;2.70;;;2.60;;
70667;SDS011;58242;51.250;-1.118;2023-10-31T10:41:21;2.50;;;2.30;;
70667;SDS011;58242;51.250;-1.118;2023-10-31T10:43:50;2.67;;;2.50;;
70667;SDS011;58242;51.250;-1.118;2023-10-31T10:46:21;2.88;;;2.67;;
70667;SDS011;58242;51.250;-1.118;2023-10-31T10:48:49;2.55;;;2.35;;
70667;SDS011;58242;51.250;-1.118;2023-10-31T10:51:24;2.40;;;2.30;;
70667;SDS011;58242;51.250;-1.118;2023-10-31T10:54:09;2.83;;;2.65;;
70667;SDS011;58242;51.250;-1.118;2023-10-31T10:56:54;2.53;;;2.42;;
70667;SDS011;58242;51.250;-1.118;2023-10-31T11:00:02;2.22;;;2.13;;
70667;SDS011;58242;51.250;-1.118;2023-10-31T11:02:21;2.63;;;2.53;;
70667;SDS011;58242;51.250;-1.118;2023-10-31T11:04:47;2.90;;;2.60;;
70667;SDS011;58242;51.250;-1.118;2023-10-31T11:07:15;2.55;;;2.45;;
70667;SDS011;58242;51.250;-1.118;2023-10-31T11:09:42;2.70;;;2.60;;
70667;SDS011;58242;51.250;-1.118;2023-10-31T11:12:10;2.60;;;2.50;;
70667;SDS011;58242;51.250;-1.118;2023-10-31T11:14:36;2.70;;;2.50;;
70667;SDS011;58242;51.250;-1.118;2023-10-31T11:17:05;2.60;;;2.40;;
70667;SDS011;58242;51.250;-1.118;2023-10-31T11:19:35;3.35;;;2.65;;
70667;SDS011;58242;51.250;-1.118;2023-10-31T11:22:01;2.22;;;2.13;;
70667;SDS011;58242;51.250;-1.118;2023-10-31T11:24:28;2.25;;;2.15;;
70667;SDS011;58242;51.250;-1.118;2023-10-31T11:26:58;2.47;;;2.33;;
70667;SDS011;58242;51.250;-1.118;2023-10-31T11:31:50;2.42;;;2.30;;
70667;SDS011;58242;51.250;-1.118;2023-10-31T11:34:16;2.85;;;2.65;;
70667;SDS011;58242;51.250;-1.118;2023-10-31T11:36:45;3.00;;;2.80;;
70667;SDS011;58242;51.250;-1.118;2023-10-31T11:39:15;2.35;;;2.25;;
70667;SDS011;58242;51.250;-1.118;2023-10-31T11:41:49;2.10;;;2.00;;
70667;SDS011;58242;51.250;-1.118;2023-10-31T11:44:16;2.20;;;2.00;;
70667;SDS011;58242;51.250;-1.118;2023-10-31T11:46:42;2.60;;;2.50;;
70667;SDS011;58242;51.250;-1.118;2023-10-31T11:49:07;2.53;;;2.33;;
70667;SDS011;58242;51.250;-1.118;2023-10-31T11:51:33;3.10;;;2.90;;
70667;SDS011;58242;51.250;-1.118;2023-10-31T11:54:01;2.40;;;2.30;;
70667;SDS011;58242;51.250;-1.118;2023-10-31T11:56:27;2.65;;;2.45;;
70667;SDS011;58242;51.250;-1.118;2023-10-31T11:58:56;2.15;;;2.05;;
70667;SDS011;58242;51.250;-1.118;2023-10-31T12:01:26;3.97;;;2.33;;
70667;SDS011;58242;51.250;-1.118;2023-10-31T12:03:51;2.40;;;2.28;;
70667;SDS011;58242;51.250;-1.118;2023-10-31T12:06:17;3.83;;;2.53;;
70667;SDS011;58242;51.250;-1.118;2023-10-31T12:08:45;2.30;;;2.20;;
70667;SDS011;58242;51.250;-1.118;2023-10-31T12:13:39;2.20;;;2.10;;
70667;SDS011;58242;51.250;-1.118;2023-10-31T12:16:06;2.10;;;2.00;;
70667;SDS011;58242;51.250;-1.118;2023-10-31T12:18:34;2.20;;;2.10;;
70667;SDS011;58242;51.250;-1.118;2023-10-31T12:21:00;2.92;;;2.80;;
70667;SDS011;58242;51.250;-1.118;2023-10-31T12:23:26;2.75;;;2.55;;
70667;SDS011;58242;51.250;-1.118;2023-10-31T12:25:51;2.33;;;2.20;;
70667;SDS011;58242;51.250;-1.118;2023-10-31T12:28:21;2.55;;;2.40;;
70667;SDS011;58242;51.250;-1.118;2023-10-31T12:30:48;3.20;;;2.30;;
70667;SDS011;58242;51.250;-1.118;2023-10-31T12:33:14;3.10;;;2.80;;
70667;SDS011;58242;51.250;-1.118;2023-10-31T12:35:40;2.47;;;2.38;;
70667;SDS011;58242;51.250;-1.118;2023-10-31T12:38:07;2.70;;;2.60;;
70667;SDS011;58242;51.250;-1.118;2023-10-31T12:40:34;3.00;;;2.80;;
70667;SDS011;58242;51.250;-1.118;2023-10-31T12:43:00;2.63;;;2.53;;
70667;SDS011;58242;51.250;-1.118;2023-10-31T12:45:27;2.55;;;2.45;;
70667;SDS011;58242;51.250;-1.118;2023-10-31T12:48:02;2.30;;;2.20;;
70667;SDS011;58242;51.250;-1.118;2023-10-31T12:50:35;2.55;;;2.38;;
70667;SDS011;58242;51.250;-1.118;2023-10-31T12:53:05;2.40;;;2.30;;
70667;SDS011;58242;51.250;-1.118;2023-10-31T12:55:38;2.70;;;2.60;;
70667;SDS011;58242;51.250;-1.118;2023-10-31T12:58:04;3.03;;;2.83;;
70667;SDS011;58242;51.250;-1.118;2023-10-31T13:00:30;3.28;;;3.08;;
70667;SDS011;58242;51.250;-1.118;2023-10-31T13:05:30;3.30;;;3.20;;
70667;SDS011;58242;51.250;-1.118;2023-10-31T13:07:56;3.42;;;3.22;;
70667;SDS011;58242;51.250;-1.118;2023-10-31T13:10:26;3.22;;;3.13;;
70667;SDS011;58242;51.250;-1.118;2023-10-31T13:12:52;3.08;;;2.95;;
70667;SDS011;58242;51.250;-1.118;2023-10-31T13:15:22;2.70;;;2.60;;
70667;SDS011;58242;51.250;-1.118;2023-10-31T13:17:48;4.20;;;3.42;;
70667;SDS011;58242;51.250;-1.118;2023-10-31T13:20:17;3.40;;;3.10;;
70667;SDS011;58242;51.250;-1.118;2023-10-31T13:22:43;3.67;;;3.47;;
70667;SDS011;58242;51.250;-1.118;2023-10-31T13:25:09;3.38;;;3.08;;
70667;SDS011;58242;51.250;-1.118;2023-10-31T13:27:36;3.20;;;3.10;;
70667;SDS011;58242;51.250;-1.118;2023-10-31T13:30:03;2.80;;;2.70;;
70667;SDS011;58242;51.250;-1.118;2023-10-31T13:32:29;3.10;;;2.90;;
70667;SDS011;58242;51.250;-1.118;2023-10-31T13:34:55;2.70;;;2.50;;
70667;SDS011;58242;51.250;-1.118;2023-10-31T13:37:20;3.15;;;3.00;;
70667;SDS011;58242;51.250;-1.118;2023-10-31T13:39:46;3.10;;;2.90;;
70667;SDS011;58242;51.250;-1.118;2023-10-31T13:42:11;2.78;;;2.67;;
70667;SDS011;58242;51.250;-1.118;2023-10-31T13:44:37;2.70;;;2.50;;
70667;SDS011;58242;51.250;-1.118;2023-10-31T13:47:03;5.22;;;3.35;;
70667;SDS011;58242;51.250;-1.118;2023-10-31T13:49:28;2.63;;;2.50;;
70667;SDS011;58242;51.250;-1.118;2023-10-31T13:51:54;3.70;;;3.40;;
70667;SDS011;58242;51.250;-1.118;2023-10-31T13:54:20;3.15;;;2.95;;
70667;SDS011;58242;51.250;-1.118;2023-10-31T13:56:46;3.50;;;3.20;;
70667;SDS011;58242;51.250;-1.118;2023-10-31T13:59:11;2.90;;;2.70;;
70667;SDS011;58242;51.250;-1.118;2023-10-31T14:01:37;3.20;;;3.00;;
70667;SDS011;58242;51.250;-1.118;2023-10-31T14:04:02;3.85;;;3.45;;
70667;SDS011;58242;51.250;-1.118;2023-10-31T14:06:28;4.47;;;3.50;;
70667;SDS011;58242;51.250;-1.118;2023-10-31T14:08:57;3.67;;;3.30;;
70667;SDS011;58242;51.250;-1.118;2023-10-31T14:11:23;3.00;;;2.80;;
70667;SDS011;58242;51.250;-1.118;2023-10-31T14:13:49;3.75;;;3.35;;
70667;SDS011;58242;51.250;-1.118;2023-10-31T14:16:15;2.95;;;2.80;;
70667;SDS011;58242;51.250;-1.118;2023-10-31T14:18:40;3.65;;;3.45;;
70667;SDS011;58242;51.250;-1.118;2023-10-31T14:21:07;3.58;;;3.28;;
70667;SDS011;58242;51.250;-1.118;2023-10-31T14:23:33;2.88;;;2.67;;
70667;SDS011;58242;51.250;-1.118;2023-10-31T14:25:58;3.00;;;2.80;;
70667;SDS011;58242;51.250;-1.118;2023-10-31T14:28:24;3.08;;;2.88;;
70667;SDS011;58242;51.250;-1.118;2023-10-31T14:30:49;2.95;;;2.67;;
70667;SDS011;58242;51.250;-1.118;2023-10-31T14:33:17;3.00;;;2.80;;